Time;durP1;ratioP1;P1;durP2;ratioP2;P2;SDS_P1;SDS_P2;PMS_P1;PMS_P2;Temp;Humidity;BMP_temperature;BMP_pressure;BME280_temperature;BME280_humidity;BME280_pressure;Samples;Min_cycle;Max_cycle;Signal;HPM_P1;HPM_P2
2021/04/29 13:01:25;;;;;;;8.55;6.28;;;7.80;82.30;;;;;;5077070;27;20411;-93
2021/04/29 13:03:51;;;;;;;9.07;7.00;;;7.60;83.50;;;;;;5070315;28;20062;-94
2021/04/29 13:06:17;;;;;;;8.45;7.15;;;7.70;85.70;;;;;;5084089;28;20694;-94
2021/04/29 13:08:59;;;;;;;10.73;8.27;;;7.80;87.00;;;;;;5061979;28;20031;-95
2021/04/29 13:11:47;;;;;;;9.68;7.05;;;8.00;88.00;;;;;;5071140;28;20044;-96
2021/04/29 13:14:26;;;;;;;7.32;6.18;;;8.30;87.30;;;;;;5076827;28;20391;-95
2021/04/29 13:16:54;;;;;;;6.78;5.28;;;8.60;86.80;;;;;;5068994;28;20025;-93
2021/04/29 13:19:20;;;;;;;8.35;6.78;;;8.80;86.00;;;;;;5089347;28;20030;-95
2021/04/29 13:21:49;;;;;;;7.85;6.22;;;8.90;84.90;;;;;;5086065;28;20092;-96
2021/04/29 13:24:17;;;;;;;6.13;4.95;;;9.00;84.10;;;;;;5064899;28;20032;-93
2021/04/29 13:26:57;;;;;;;5.97;5.00;;;9.00;83.50;;;;;;5072526;28;20047;-96
2021/04/29 13:29:23;;;;;;;7.60;6.15;;;9.10;83.20;;;;;;5075995;28;20486;-96
2021/04/29 13:31:49;;;;;;;8.25;6.18;;;9.10;82.80;;;;;;5061557;28;20032;-95
2021/04/29 13:34:14;;;;;;;5.90;5.20;;;9.10;82.90;;;;;;5072162;28;20025;-95
2021/04/29 13:36:41;;;;;;;10.35;6.75;;;9.10;81.80;;;;;;5066407;28;20029;-95
2021/04/29 13:39:07;;;;;;;10.68;6.88;;;9.20;81.60;;;;;;5067562;28;20028;-94
2021/04/29 13:41:33;;;;;;;9.40;6.05;;;9.10;80.90;;;;;;5062674;28;20025;-95
2021/04/29 13:43:59;;;;;;;9.00;6.97;;;9.10;80.70;;;;;;5060411;28;20059;-95
2021/04/29 13:46:25;;;;;;;9.60;7.60;;;9.10;80.30;;;;;;5063992;28;20032;-92
2021/04/29 13:48:50;;;;;;;10.40;7.53;;;9.10;79.30;;;;;;5058934;28;20048;-94
2021/04/29 13:51:18;;;;;;;9.88;7.78;;;9.10;78.90;;;;;;5059908;28;20021;-96
2021/04/29 13:53:45;;;;;;;7.82;6.97;;;9.00;78.70;;;;;;5072189;28;20051;-96
2021/04/29 13:56:13;;;;;;;9.50;6.90;;;9.00;78.40;;;;;;5062425;28;20074;-92
2021/04/29 13:58:42;;;;;;;7.60;5.93;;;9.10;78.20;;;;;;5055008;28;20040;-93
2021/04/29 14:01:08;;;;;;;7.97;6.28;;;9.10;78.00;;;;;;5055716;28;20041;-95
2021/04/29 14:03:37;;;;;;;8.57;7.18;;;9.10;77.50;;;;;;5055765;28;20040;-94
2021/04/29 14:06:06;;;;;;;9.18;6.63;;;9.00;76.80;;;;;;5061479;28;20081;-95
2021/04/29 14:08:34;;;;;;;11.45;8.00;;;9.00;76.70;;;;;;5061230;28;20029;-96
2021/04/29 14:11:01;;;;;;;10.73;8.30;;;9.00;76.20;;;;;;5051518;28;20036;-95
2021/04/29 14:13:27;;;;;;;11.07;6.60;;;8.90;76.00;;;;;;5040952;28;20025;-96
2021/04/29 14:15:52;;;;;;;9.50;7.40;;;8.90;76.30;;;;;;5038091;28;20032;-92
2021/04/29 14:18:18;;;;;;;10.52;7.40;;;8.90;76.10;;;;;;5041829;28;20045;-92
2021/04/29 14:20:44;;;;;;;7.85;5.90;;;8.90;76.10;;;;;;5042298;28;20029;-92
2021/04/29 14:23:09;;;;;;;7.95;6.47;;;8.90;76.10;;;;;;5038454;28;20213;-94
2021/04/29 14:25:35;;;;;;;9.68;6.60;;;9.00;75.80;;;;;;5042295;28;20484;-95
2021/04/29 14:28:02;;;;;;;7.90;5.80;;;9.10;75.80;;;;;;5053151;28;20085;-91
2021/04/29 14:30:28;;;;;;;8.55;6.53;;;9.10;75.60;;;;;;5043100;28;20032;-92
2021/04/29 14:32:54;;;;;;;7.72;5.93;;;9.10;75.50;;;;;;5038071;28;20025;-93
2021/04/29 14:35:20;;;;;;;8.10;5.90;;;9.10;75.40;;;;;;5040386;28;20028;-94
2021/04/29 14:37:46;;;;;;;8.15;6.32;;;9.10;75.40;;;;;;5041774;28;20017;-91
2021/04/29 14:40:14;;;;;;;9.05;6.40;;;9.00;75.30;;;;;;5043601;28;20077;-93
2021/04/29 14:42:40;;;;;;;6.43;4.90;;;9.00;75.30;;;;;;5046027;28;20028;-93
2021/04/29 14:45:06;;;;;;;9.95;5.53;;;9.00;75.30;;;;;;5043521;28;20112;-93
2021/04/29 14:47:32;;;;;;;7.15;5.57;;;9.00;75.40;;;;;;5042258;28;20181;-93
2021/04/29 14:49:59;;;;;;;7.25;5.40;;;9.00;75.40;;;;;;5051736;28;20499;-93
2021/04/29 14:52:25;;;;;;;9.02;6.22;;;9.00;75.50;;;;;;5036547;28;20112;-92
2021/04/29 14:54:50;;;;;;;10.32;6.10;;;8.90;75.40;;;;;;5044959;28;20422;-91
2021/04/29 14:57:17;;;;;;;7.85;6.20;;;8.90;75.50;;;;;;5044390;28;20055;-92
2021/04/29 14:59:43;;;;;;;8.45;6.15;;;8.90;75.50;;;;;;5042186;28;20036;-93
2021/04/29 15:02:09;;;;;;;7.68;5.78;;;8.90;75.60;;;;;;5053745;28;20029;-91
2021/04/29 15:04:37;;;;;;;7.65;5.63;;;8.90;75.80;;;;;;5046407;28;20021;-90
2021/04/29 15:07:03;;;;;;;9.43;6.07;;;8.80;75.90;;;;;;5044744;28;20032;-92
2021/04/29 15:09:29;;;;;;;7.38;4.88;;;8.80;76.10;;;;;;5040842;28;20364;-92
2021/04/29 15:11:55;;;;;;;10.05;6.75;;;8.70;76.10;;;;;;5044349;28;20044;-91
2021/04/29 15:14:21;;;;;;;8.05;5.05;;;8.70;76.20;;;;;;5043884;28;20036;-92
2021/04/29 15:16:47;;;;;;;7.88;5.70;;;8.70;76.20;;;;;;5042778;28;20021;-93
2021/04/29 15:19:12;;;;;;;6.93;5.47;;;8.70;76.10;;;;;;5048757;28;20267;-91
2021/04/29 15:21:39;;;;;;;8.13;5.10;;;8.60;76.10;;;;;;5037678;28;20038;-92
2021/04/29 15:24:08;;;;;;;9.15;6.15;;;8.50;76.00;;;;;;5036123;28;20534;-93
2021/04/29 15:26:34;;;;;;;8.10;5.30;;;8.50;75.80;;;;;;5051302;28;20031;-94
2021/04/29 15:29:01;;;;;;;5.85;4.25;;;8.50;75.90;;;;;;5049074;28;20017;-92
2021/04/29 15:31:28;;;;;;;8.75;5.50;;;8.40;75.90;;;;;;5045460;28;20021;-92
2021/04/29 15:33:55;;;;;;;7.22;5.30;;;8.40;75.70;;;;;;5046128;28;20060;-92
2021/04/29 15:36:21;;;;;;;8.13;5.95;;;8.40;75.80;;;;;;5039437;28;20017;-93
2021/04/29 15:38:47;;;;;;;9.93;7.28;;;8.30;75.80;;;;;;5038290;28;20365;-93
2021/04/29 15:41:16;;;;;;;8.10;6.03;;;8.30;75.80;;;;;;5053122;28;20041;-93
2021/04/29 15:43:41;;;;;;;9.00;5.95;;;8.30;75.70;;;;;;5071489;28;20428;-96
2021/04/29 15:46:08;;;;;;;8.88;6.88;;;8.20;75.90;;;;;;5042736;28;20032;-94
2021/04/29 15:48:33;;;;;;;7.38;5.72;;;8.10;76.00;;;;;;5042683;28;20025;-92
2021/04/29 15:51:04;;;;;;;7.68;5.82;;;8.20;76.20;;;;;;5044643;28;20059;-92
2021/04/29 15:53:30;;;;;;;6.38;5.35;;;8.10;76.20;;;;;;5054285;28;20053;-91
2021/04/29 15:55:56;;;;;;;7.40;6.07;;;8.10;76.20;;;;;;5065476;28;20446;-92
2021/04/29 15:58:23;;;;;;;8.07;5.97;;;8.10;76.30;;;;;;5040642;28;20027;-91
2021/04/29 16:00:49;;;;;;;8.48;6.38;;;8.10;76.50;;;;;;5043634;28;20064;-90
2021/04/29 16:03:15;;;;;;;7.82;6.20;;;8.10;76.60;;;;;;5053240;28;20431;-91
2021/04/29 16:05:41;;;;;;;6.57;5.07;;;8.00;76.60;;;;;;5054179;28;20028;-91
2021/04/29 16:08:06;;;;;;;6.30;5.53;;;8.00;76.70;;;;;;5058808;28;20036;-90
2021/04/29 16:10:32;;;;;;;7.22;6.07;;;8.00;76.90;;;;;;5053848;28;20029;-91
2021/04/29 16:12:58;;;;;;;8.45;6.90;;;8.00;77.00;;;;;;5038359;28;20026;-91
2021/04/29 16:15:24;;;;;;;8.88;7.00;;;7.90;77.00;;;;;;5049335;28;20033;-91
2021/04/29 16:17:50;;;;;;;7.05;6.05;;;7.90;77.10;;;;;;5049381;28;20013;-91
2021/04/29 16:20:16;;;;;;;9.73;7.38;;;7.80;77.10;;;;;;5054939;28;20040;-92
2021/04/29 16:22:42;;;;;;;9.77;6.93;;;7.80;77.30;;;;;;5054475;28;20399;-91
2021/04/29 16:25:08;;;;;;;7.88;6.68;;;7.70;77.40;;;;;;5046606;28;20032;-91
2021/04/29 16:27:35;;;;;;;7.10;6.18;;;7.70;77.50;;;;;;5041663;28;20026;-91
2021/04/29 16:30:01;;;;;;;9.65;8.35;;;7.70;77.70;;;;;;5034694;28;20068;-91
2021/04/29 16:32:27;;;;;;;10.00;8.10;;;7.70;77.90;;;;;;5041604;28;20025;-91
2021/04/29 16:34:52;;;;;;;10.70;8.63;;;7.60;78.00;;;;;;5051131;28;20051;-91
2021/04/29 16:37:18;;;;;;;8.25;6.93;;;7.60;78.40;;;;;;5034745;28;20392;-91
2021/04/29 16:39:44;;;;;;;7.68;6.63;;;7.60;78.50;;;;;;5041651;28;20384;-91
2021/04/29 16:42:10;;;;;;;8.77;6.85;;;7.60;78.70;;;;;;5042281;28;20094;-90
2021/04/29 16:44:36;;;;;;;9.13;7.75;;;7.60;78.70;;;;;;5054080;28;20488;-91
2021/04/29 16:47:03;;;;;;;8.70;6.75;;;7.60;78.70;;;;;;5060296;28;20051;-91
2021/04/29 16:49:28;;;;;;;7.97;6.38;;;7.60;78.70;;;;;;5058747;28;20041;-89
2021/04/29 16:51:54;;;;;;;9.77;7.82;;;7.60;78.70;;;;;;5032747;28;20080;-91
2021/04/29 16:54:19;;;;;;;8.50;6.97;;;7.60;78.80;;;;;;5045492;28;20069;-90
2021/04/29 16:56:45;;;;;;;8.75;7.10;;;7.60;78.90;;;;;;5056366;28;20064;-90
2021/04/29 16:59:11;;;;;;;7.85;6.90;;;7.60;79.00;;;;;;5042759;28;20017;-90
2021/04/29 17:01:37;;;;;;;7.38;6.28;;;7.60;78.90;;;;;;5032333;28;20156;-91
2021/04/29 17:04:02;;;;;;;10.75;8.15;;;7.70;78.90;;;;;;5045932;28;20060;-91
2021/04/29 17:06:28;;;;;;;9.43;7.50;;;7.70;78.80;;;;;;5050736;28;20025;-91
2021/04/29 17:08:54;;;;;;;10.88;9.20;;;7.70;79.00;;;;;;5048370;28;20021;-91
2021/04/29 17:11:20;;;;;;;8.13;6.93;;;7.60;79.20;;;;;;5044462;28;20021;-90
2021/04/29 17:13:46;;;;;;;10.52;8.95;;;7.60;79.30;;;;;;5042310;28;20498;-90
2021/04/29 17:16:12;;;;;;;8.93;7.60;;;7.60;79.50;;;;;;5042123;28;20017;-90
2021/04/29 17:18:39;;;;;;;9.43;7.68;;;7.60;79.50;;;;;;5050329;28;20021;-89
2021/04/29 17:21:05;;;;;;;11.38;8.90;;;7.60;79.60;;;;;;5036427;28;20623;-90
2021/04/29 17:23:31;;;;;;;7.97;6.68;;;7.60;79.80;;;;;;5047405;28;20026;-89
2021/04/29 17:25:57;;;;;;;8.45;6.90;;;7.50;79.90;;;;;;5037144;28;20028;-89
2021/04/29 17:28:23;;;;;;;8.60;6.65;;;7.60;80.00;;;;;;5041106;28;20207;-90
2021/04/29 17:30:48;;;;;;;11.23;9.50;;;7.60;79.80;;;;;;5044396;28;20033;-89
2021/04/29 17:33:14;;;;;;;7.35;6.07;;;7.60;80.00;;;;;;5043105;28;20383;-91
2021/04/29 17:35:41;;;;;;;10.32;7.47;;;7.60;80.00;;;;;;5040203;28;20559;-90
2021/04/29 17:38:07;;;;;;;10.10;8.13;;;7.60;80.10;;;;;;5051037;28;20021;-90
2021/04/29 17:40:32;;;;;;;13.32;10.40;;;7.60;80.10;;;;;;5052645;28;20091;-89
2021/04/29 17:43:00;;;;;;;9.73;7.80;;;7.60;80.30;;;;;;5046586;28;20031;-88
2021/04/29 17:45:27;;;;;;;14.57;9.73;;;7.60;80.30;;;;;;5048755;28;20498;-90
2021/04/29 17:47:54;;;;;;;7.38;5.68;;;7.60;80.30;;;;;;5043141;28;20060;-91
2021/04/29 17:50:19;;;;;;;11.63;7.93;;;7.70;80.20;;;;;;5041696;28;20036;-90
2021/04/29 17:52:45;;;;;;;9.40;7.55;;;7.70;80.30;;;;;;5040878;28;20025;-90
2021/04/29 17:55:11;;;;;;;9.88;7.28;;;7.70;80.40;;;;;;5040105;28;20025;-89
2021/04/29 17:57:36;;;;;;;10.43;7.80;;;7.70;80.40;;;;;;5046704;28;20043;-90
2021/04/29 18:00:05;;;;;;;8.30;5.93;;;7.70;80.50;;;;;;5048536;28;20190;-89
2021/04/29 18:02:31;;;;;;;6.95;5.93;;;7.70;80.40;;;;;;5043340;28;20587;-89
2021/04/29 18:04:57;;;;;;;10.48;8.13;;;7.80;80.40;;;;;;5043201;28;20021;-89
2021/04/29 18:07:23;;;;;;;10.15;8.73;;;7.80;80.40;;;;;;5065470;28;20043;-89
2021/04/29 18:09:49;;;;;;;9.23;6.75;;;7.80;80.40;;;;;;5050607;28;20021;-90
2021/04/29 18:12:14;;;;;;;9.38;7.53;;;7.80;80.50;;;;;;5053218;28;20029;-90
2021/04/29 18:14:40;;;;;;;8.38;6.35;;;7.80;81.10;;;;;;5049482;28;20095;-88
2021/04/29 18:17:05;;;;;;;10.65;8.50;;;7.80;80.50;;;;;;5043140;28;20048;-90
2021/04/29 18:19:31;;;;;;;10.95;8.52;;;7.80;80.60;;;;;;5043746;28;20029;-89
2021/04/29 18:21:56;;;;;;;8.63;6.97;;;7.80;80.80;;;;;;5046031;28;20037;-89
2021/04/29 18:24:22;;;;;;;10.20;7.75;;;7.90;80.80;;;;;;5055153;28;20021;-89
2021/04/29 18:26:48;;;;;;;7.97;6.03;;;7.90;80.80;;;;;;5050837;28;20028;-90
2021/04/29 18:29:13;;;;;;;10.85;8.32;;;7.90;80.80;;;;;;5036163;28;20040;-89
2021/04/29 18:31:39;;;;;;;10.07;8.00;;;7.90;80.80;;;;;;5037583;28;20073;-90
2021/04/29 18:34:05;;;;;;;10.52;8.02;;;7.90;80.90;;;;;;5051212;28;20092;-90
2021/04/29 18:36:30;;;;;;;12.65;9.43;;;7.90;81.10;;;;;;5041250;28;20036;-89
2021/04/29 18:38:56;;;;;;;11.95;9.05;;;7.90;81.10;;;;;;5050435;28;20056;-89
2021/04/29 18:41:23;;;;;;;11.63;8.60;;;7.90;81.00;;;;;;5049494;28;20037;-89
2021/04/29 18:43:48;;;;;;;9.38;8.15;;;7.90;81.10;;;;;;5041056;28;20127;-92
2021/04/29 18:46:14;;;;;;;11.63;9.68;;;7.90;81.10;;;;;;5042032;28;20468;-92
2021/04/29 18:48:41;;;;;;;10.95;7.93;;;7.90;81.20;;;;;;5042212;28;20083;-92
2021/04/29 18:51:07;;;;;;;12.40;9.25;;;8.00;81.30;;;;;;5040107;28;20025;-90
2021/04/29 18:53:33;;;;;;;10.05;7.72;;;7.90;81.20;;;;;;5042367;28;20029;-90
2021/04/29 18:55:58;;;;;;;11.07;8.65;;;8.00;81.40;;;;;;5046574;28;20032;-90
2021/04/29 18:58:24;;;;;;;11.60;8.93;;;7.90;81.40;;;;;;5040017;28;20115;-89
2021/04/29 19:00:49;;;;;;;8.35;6.32;;;7.90;81.30;;;;;;5037122;28;20041;-89
2021/04/29 19:03:15;;;;;;;10.20;8.43;;;8.00;81.20;;;;;;5037638;28;20029;-90
2021/04/29 19:05:41;;;;;;;10.70;8.80;;;8.00;81.10;;;;;;5036174;28;20372;-90
2021/04/29 19:08:08;;;;;;;10.30;7.97;;;8.00;81.20;;;;;;5038344;28;20033;-89
2021/04/29 19:10:33;;;;;;;13.52;9.90;;;8.00;81.20;;;;;;5037443;28;20514;-89
2021/04/29 19:13:00;;;;;;;12.77;9.77;;;8.00;81.20;;;;;;5040316;28;20075;-88
2021/04/29 19:15:27;;;;;;;11.00;8.43;;;7.90;81.20;;;;;;5040662;28;20060;-89
2021/04/29 19:17:53;;;;;;;10.90;8.75;;;8.00;81.30;;;;;;5038145;28;20164;-91
2021/04/29 19:20:19;;;;;;;10.07;7.55;;;8.00;81.30;;;;;;5036935;28;20124;-90
2021/04/29 19:22:46;;;;;;;8.82;6.88;;;8.00;81.20;;;;;;5042004;28;20029;-89
2021/04/29 19:25:13;;;;;;;9.20;7.20;;;8.10;81.20;;;;;;5041565;28;20055;-87
2021/04/29 19:27:39;;;;;;;8.90;7.50;;;8.10;81.70;;;;;;5041515;28;20147;-89
2021/04/29 19:30:08;;;;;;;11.63;8.35;;;8.10;81.00;;;;;;5042430;28;20566;-89
2021/04/29 19:32:34;;;;;;;11.98;8.18;;;8.10;81.00;;;;;;5045862;28;20040;-90
2021/04/29 19:35:01;;;;;;;11.52;8.52;;;8.10;81.00;;;;;;5050176;28;20433;-91
2021/04/29 19:37:34;;;;;;;11.77;7.68;;;8.20;81.10;;;;;;5050198;28;20539;-89
2021/04/29 19:40:20;;;;;;;9.50;7.18;;;8.10;81.10;;;;;;5035533;28;20079;-91
2021/04/29 19:42:55;;;;;;;10.93;7.55;;;8.20;81.10;;;;;;5041069;28;20464;-89
2021/04/29 19:45:34;;;;;;;;;;;;;;;;;;;;;
2021/04/29 19:48:29;;;;;;;8.88;6.10;;;8.20;81.00;;;;;;5038105;28;20035;-89
2021/04/29 19:54:40;;;;;;;8.88;6.60;;;8.20;80.90;;;;;;5046773;28;20027;-89
2021/04/29 20:00:49;;;;;;;12.85;7.80;;;8.20;80.80;;;;;;4992305;28;20564;-89
2021/04/29 20:03:15;;;;;;;11.15;6.60;;;8.20;80.90;;;;;;5009719;28;20552;-89
2021/04/29 20:05:40;;;;;;;12.45;7.65;;;8.20;81.00;;;;;;5002781;28;20046;-90
2021/04/29 20:08:06;;;;;;;8.57;6.05;;;8.20;81.00;;;;;;4998100;28;20353;-88
2021/04/29 20:10:36;;;;;;;11.85;8.13;;;8.30;81.00;;;;;;4993791;28;21312;-90
2021/04/29 20:13:01;;;;;;;9.68;6.38;;;8.30;81.00;;;;;;5004069;28;20037;-90
2021/04/29 20:15:27;;;;;;;9.50;6.18;;;8.30;80.90;;;;;;4996628;28;20026;-90
2021/04/29 20:17:53;;;;;;;5.80;4.50;;;8.40;80.90;;;;;;4995613;28;20036;-90
2021/04/29 20:20:18;;;;;;;9.52;6.20;;;8.40;80.70;;;;;;4991868;28;20382;-90
2021/04/29 20:22:44;;;;;;;9.60;5.57;;;8.40;80.70;;;;;;4992014;28;20019;-89
2021/04/29 20:25:11;;;;;;;9.82;6.40;;;8.40;80.70;;;;;;4994689;28;20066;-91
2021/04/29 20:27:37;;;;;;;11.35;6.90;;;8.40;80.60;;;;;;4993346;28;20049;-89
2021/04/29 20:30:05;;;;;;;11.15;7.32;;;8.40;80.90;;;;;;4991410;28;20030;-91
2021/04/29 20:32:30;;;;;;;13.68;7.38;;;8.30;81.00;;;;;;4997952;28;20068;-91
2021/04/29 20:34:56;;;;;;;11.02;7.13;;;8.40;81.10;;;;;;4991870;28;20057;-89
2021/04/29 20:37:22;;;;;;;14.07;7.70;;;8.40;81.00;;;;;;4996626;28;20109;-90
2021/04/29 20:39:47;;;;;;;10.93;7.28;;;8.40;81.20;;;;;;4992165;28;20141;-91
2021/04/29 20:42:13;;;;;;;9.45;5.97;;;8.30;81.10;;;;;;4997794;28;20018;-90
2021/04/29 20:44:38;;;;;;;12.85;6.38;;;8.30;81.10;;;;;;5011444;28;20488;-90
2021/04/29 20:47:05;;;;;;;11.52;6.10;;;8.30;81.20;;;;;;5012864;28;20113;-88
2021/04/29 20:49:30;;;;;;;9.25;6.25;;;8.30;81.00;;;;;;4992721;28;20018;-91
2021/04/29 20:51:59;;;;;;;10.68;7.05;;;8.40;81.00;;;;;;4991289;28;20019;-91
2021/04/29 20:54:25;;;;;;;14.57;7.72;;;8.30;81.00;;;;;;4992067;28;20172;-90
2021/04/29 20:56:51;;;;;;;15.68;7.15;;;8.40;81.10;;;;;;4991922;28;20062;-90
2021/04/29 20:59:16;;;;;;;12.77;7.05;;;8.30;81.20;;;;;;4991138;28;20027;-90
2021/04/29 21:01:42;;;;;;;10.52;6.45;;;8.30;81.30;;;;;;4979545;28;20135;-90
2021/04/29 21:04:08;;;;;;;11.73;6.82;;;8.40;81.20;;;;;;5003689;28;20018;-90
2021/04/29 21:06:35;;;;;;;10.48;6.47;;;8.40;81.20;;;;;;4989447;28;20029;-90
2021/04/29 21:09:01;;;;;;;12.57;7.57;;;8.30;81.20;;;;;;4989791;28;20392;-89
2021/04/29 21:11:26;;;;;;;11.57;7.97;;;8.30;81.20;;;;;;4997077;28;20026;-89
2021/04/29 21:13:53;;;;;;;11.45;6.88;;;8.30;81.20;;;;;;4994964;28;20028;-89
2021/04/29 21:16:19;;;;;;;9.60;5.72;;;8.30;81.20;;;;;;4988715;28;20034;-89
2021/04/29 21:18:45;;;;;;;8.27;5.60;;;8.30;81.20;;;;;;4989694;28;20448;-89
2021/04/29 21:21:11;;;;;;;8.32;5.63;;;8.30;81.20;;;;;;4990938;28;20034;-89
2021/04/29 21:23:36;;;;;;;10.90;6.68;;;8.30;81.10;;;;;;4995515;28;20033;-89
2021/04/29 21:26:02;;;;;;;9.57;6.07;;;8.30;81.10;;;;;;5000504;28;20034;-88
2021/04/29 21:28:28;;;;;;;9.82;6.82;;;8.30;81.20;;;;;;4995231;28;20026;-89
2021/04/29 21:30:59;;;;;;;11.85;6.60;;;8.30;81.10;;;;;;4994478;28;20102;-89
2021/04/29 21:33:24;;;;;;;9.38;5.88;;;8.30;81.20;;;;;;4995224;28;20050;-89
2021/04/29 21:35:51;;;;;;;8.93;5.63;;;8.30;81.10;;;;;;4993692;28;20485;-87
2021/04/29 21:38:18;;;;;;;9.45;6.70;;;8.30;81.10;;;;;;4994309;28;20030;-87
2021/04/29 21:40:44;;;;;;;13.73;7.70;;;8.30;81.10;;;;;;4994863;28;20038;-87
2021/04/29 21:43:09;;;;;;;10.05;5.93;;;8.30;81.30;;;;;;4994995;28;20098;-87
2021/04/29 21:45:35;;;;;;;7.95;5.38;;;8.30;81.30;;;;;;5005838;28;20097;-87
2021/04/29 21:48:01;;;;;;;11.75;6.97;;;8.30;81.30;;;;;;5005631;28;20030;-88
2021/04/29 21:50:27;;;;;;;11.77;6.30;;;8.40;81.30;;;;;;5001219;28;20040;-88
2021/04/29 21:52:54;;;;;;;12.05;6.38;;;8.40;81.20;;;;;;5003587;28;20026;-88
2021/04/29 21:55:19;;;;;;;11.77;7.22;;;8.40;81.20;;;;;;4980659;28;20697;-88
2021/04/29 21:57:45;;;;;;;10.77;6.50;;;8.40;81.20;;;;;;4997773;28;20034;-89
2021/04/29 22:00:14;;;;;;;11.88;7.20;;;8.40;81.20;;;;;;4993834;28;20030;-89
2021/04/29 22:02:48;;;;;;;13.55;7.55;;;8.40;81.30;;;;;;4982151;28;20113;-89
2021/04/29 22:05:14;;;;;;;15.25;8.15;;;8.40;81.50;;;;;;4995804;28;20022;-90
2021/04/29 22:07:39;;;;;;;11.02;6.30;;;8.40;81.50;;;;;;4998983;28;20137;-91
2021/04/29 22:10:06;;;;;;;8.57;5.45;;;8.40;81.40;;;;;;4996902;28;20018;-89
2021/04/29 22:12:32;;;;;;;11.85;7.40;;;8.40;81.40;;;;;;4976305;28;20037;-89
2021/04/29 22:14:58;;;;;;;10.65;5.82;;;8.40;81.30;;;;;;4975766;28;20109;-89
2021/04/29 22:17:23;;;;;;;8.07;5.47;;;8.40;81.40;;;;;;4993718;28;20049;-90
2021/04/29 22:19:49;;;;;;;8.82;5.35;;;8.40;81.30;;;;;;4993705;28;20038;-89
2021/04/29 22:22:15;;;;;;;10.07;5.18;;;8.50;81.20;;;;;;4993669;28;20039;-90
2021/04/29 22:24:40;;;;;;;8.93;6.07;;;8.50;81.10;;;;;;4993942;28;20033;-91
2021/04/29 22:27:06;;;;;;;7.07;4.90;;;8.50;81.00;;;;;;4996557;28;20027;-91
2021/04/29 22:29:32;;;;;;;8.13;5.53;;;8.60;80.90;;;;;;4997869;28;20473;-90
2021/04/29 22:31:57;;;;;;;8.23;5.50;;;8.50;80.80;;;;;;4992800;28;20030;-91
2021/04/29 22:34:23;;;;;;;8.98;5.40;;;8.70;80.90;;;;;;4993083;28;20030;-90
2021/04/29 22:36:49;;;;;;;7.88;5.20;;;8.60;80.70;;;;;;4993939;28;20031;-90
2021/04/29 22:39:14;;;;;;;9.57;5.45;;;8.60;80.70;;;;;;4993828;28;20041;-90
2021/04/29 22:41:40;;;;;;;9.18;5.50;;;8.60;80.70;;;;;;4994514;28;20042;-91
2021/04/29 22:44:06;;;;;;;6.20;3.95;;;8.60;80.80;;;;;;4993354;28;20030;-90
2021/04/29 22:46:39;;;;;;;12.35;6.90;;;8.60;80.80;;;;;;4994052;28;20408;-91
2021/04/29 22:49:07;;;;;;;9.85;6.43;;;8.60;80.80;;;;;;4992631;28;20042;-93
2021/04/29 22:51:37;;;;;;;10.80;6.43;;;8.60;81.00;;;;;;4992327;28;20109;-91
2021/04/29 22:54:04;;;;;;;8.77;4.82;;;8.60;81.10;;;;;;5016184;28;20027;-93
2021/04/29 22:56:29;;;;;;;11.10;5.90;;;8.60;81.10;;;;;;4994084;28;20026;-92
2021/04/29 22:58:55;;;;;;;12.20;6.45;;;8.60;81.00;;;;;;4994108;28;20488;-94
2021/04/29 23:01:21;;;;;;;7.38;4.43;;;8.60;81.00;;;;;;4994354;28;20556;-94
2021/04/29 23:03:46;;;;;;;7.80;5.20;;;8.60;80.90;;;;;;4994074;28;20018;-92
2021/04/29 23:06:12;;;;;;;10.57;6.47;;;8.60;80.90;;;;;;4993525;28;20054;-94
2021/04/29 23:08:37;;;;;;;10.20;6.22;;;8.60;80.90;;;;;;4994476;28;20050;-92
2021/04/29 23:11:03;;;;;;;10.98;6.20;;;8.70;80.90;;;;;;4992324;28;20473;-92
2021/04/29 23:13:29;;;;;;;9.93;5.57;;;8.60;80.90;;;;;;4996804;28;20023;-89
2021/04/29 23:15:54;;;;;;;9.95;4.93;;;8.60;80.90;;;;;;4993080;28;20026;-89
2021/04/29 23:18:22;;;;;;;5.05;3.90;;;8.60;81.00;;;;;;4993311;28;20030;-88
2021/04/29 23:20:47;;;;;;;10.60;6.22;;;8.60;81.00;;;;;;4998415;28;20117;-90
2021/04/29 23:23:13;;;;;;;10.10;6.82;;;8.70;81.10;;;;;;4995155;28;20057;-90
2021/04/29 23:25:39;;;;;;;11.15;5.90;;;8.70;81.00;;;;;;4992835;28;20081;-91
2021/04/29 23:28:07;;;;;;;9.30;5.70;;;8.70;80.90;;;;;;4993976;28;20026;-91
2021/04/29 23:30:32;;;;;;;9.35;6.35;;;8.70;80.80;;;;;;4991421;28;20050;-89
2021/04/29 23:32:58;;;;;;;10.70;5.75;;;8.70;80.70;;;;;;4993801;28;20454;-90
2021/04/29 23:35:27;;;;;;;10.23;6.22;;;8.80;80.80;;;;;;4994097;28;20038;-90
2021/04/29 23:37:53;;;;;;;11.93;8.10;;;8.70;80.90;;;;;;4994279;28;20493;-90
2021/04/29 23:40:19;;;;;;;14.60;7.47;;;8.70;81.00;;;;;;4991948;28;20062;-89
2021/04/29 23:42:44;;;;;;;12.00;6.15;;;8.70;81.10;;;;;;4996329;28;20097;-90
2021/04/29 23:45:10;;;;;;;9.80;6.10;;;8.70;81.20;;;;;;4998621;28;20026;-89
2021/04/29 23:47:36;;;;;;;10.60;5.97;;;8.70;81.20;;;;;;4998054;28;20073;-89
2021/04/29 23:50:02;;;;;;;9.43;5.57;;;8.70;81.10;;;;;;4998998;28;20034;-89
2021/04/29 23:52:28;;;;;;;10.40;5.53;;;8.70;81.10;;;;;;4998022;28;20049;-89
2021/04/29 23:54:53;;;;;;;8.82;4.70;;;8.70;81.70;;;;;;4998973;28;20022;-90
2021/04/29 23:57:19;;;;;;;10.43;5.90;;;8.70;81.00;;;;;;4989750;28;20038;-89
2021/04/29 23:59:44;;;;;;;10.55;5.90;;;8.70;81.00;;;;;;4993874;28;20053;-89
